sensor_id;sensor_type;location;lat;lon;timestamp;P1;durP1;ratioP1;P2;durP2;ratioP2
33327;SDS011;19692;52.998;9.116;2022-09-09T00:03:54;27.33;;;23.50;;
33327;SDS011;19692;52.998;9.116;2022-09-09T00:06:33;27.63;;;23.40;;
33327;SDS011;19692;52.998;9.116;2022-09-09T00:09:34;27.17;;;23.73;;
33327;SDS011;19692;52.998;9.116;2022-09-09T00:12:34;27.30;;;23.73;;
33327;SDS011;19692;52.998;9.116;2022-09-09T00:15:05;27.20;;;24.20;;
33327;SDS011;19692;52.998;9.116;2022-09-09T00:17:39;26.47;;;23.23;;
33327;SDS011;19692;52.998;9.116;2022-09-09T00:20:16;30.37;;;24.47;;
33327;SDS011;19692;52.998;9.116;2022-09-09T00:23:24;29.50;;;24.67;;
33327;SDS011;19692;52.998;9.116;2022-09-09T00:25:51;28.83;;;24.17;;
33327;SDS011;19692;52.998;9.116;2022-09-09T00:28:29;26.40;;;23.67;;
33327;SDS011;19692;52.998;9.116;2022-09-09T00:31:00;25.83;;;22.90;;
33327;SDS011;19692;52.998;9.116;2022-09-09T00:33:38;26.13;;;23.30;;
33327;SDS011;19692;52.998;9.116;2022-09-09T00:36:09;27.53;;;23.03;;
33327;SDS011;19692;52.998;9.116;2022-09-09T00:38:42;26.73;;;23.27;;
33327;SDS011;19692;52.998;9.116;2022-09-09T00:41:28;25.57;;;22.83;;
33327;SDS011;19692;52.998;9.116;2022-09-09T00:58:30;27.70;;;24.20;;
33327;SDS011;19692;52.998;9.116;2022-09-09T01:00:58;29.03;;;23.87;;
33327;SDS011;19692;52.998;9.116;2022-09-09T01:03:43;28.67;;;23.37;;
33327;SDS011;19692;52.998;9.116;2022-09-09T01:06:29;26.77;;;23.87;;
33327;SDS011;19692;52.998;9.116;2022-09-09T01:09:07;25.47;;;22.43;;
33327;SDS011;19692;52.998;9.116;2022-09-09T01:14:48;26.23;;;23.40;;
33327;SDS011;19692;52.998;9.116;2022-09-09T01:17:21;27.97;;;23.70;;
33327;SDS011;19692;52.998;9.116;2022-09-09T01:20:01;28.57;;;23.67;;
33327;SDS011;19692;52.998;9.116;2022-09-09T01:25:20;26.40;;;22.83;;
33327;SDS011;19692;52.998;9.116;2022-09-09T01:28:09;28.23;;;24.03;;
33327;SDS011;19692;52.998;9.116;2022-09-09T01:30:41;27.43;;;22.50;;
33327;SDS011;19692;52.998;9.116;2022-09-09T01:33:09;26.50;;;22.67;;
33327;SDS011;19692;52.998;9.116;2022-09-09T01:36:00;27.33;;;22.20;;
33327;SDS011;19692;52.998;9.116;2022-09-09T01:38:33;25.37;;;21.37;;
33327;SDS011;19692;52.998;9.116;2022-09-09T01:41:00;24.87;;;22.23;;
33327;SDS011;19692;52.998;9.116;2022-09-09T01:43:26;26.20;;;23.17;;
33327;SDS011;19692;52.998;9.116;2022-09-09T01:45:54;25.40;;;21.40;;
33327;SDS011;19692;52.998;9.116;2022-09-09T01:48:22;27.50;;;22.07;;
33327;SDS011;19692;52.998;9.116;2022-09-09T01:50:50;24.53;;;21.93;;
33327;SDS011;19692;52.998;9.116;2022-09-09T01:53:17;25.20;;;22.27;;
33327;SDS011;19692;52.998;9.116;2022-09-09T01:55:46;26.17;;;21.53;;
33327;SDS011;19692;52.998;9.116;2022-09-09T02:04:38;25.50;;;20.87;;
33327;SDS011;19692;52.998;9.116;2022-09-09T02:07:16;23.30;;;20.87;;
33327;SDS011;19692;52.998;9.116;2022-09-09T02:09:47;22.90;;;19.77;;
33327;SDS011;19692;52.998;9.116;2022-09-09T02:12:28;22.40;;;20.07;;
33327;SDS011;19692;52.998;9.116;2022-09-09T02:14:57;22.10;;;19.77;;
33327;SDS011;19692;52.998;9.116;2022-09-09T02:17:31;22.27;;;19.27;;
33327;SDS011;19692;52.998;9.116;2022-09-09T02:20:03;22.47;;;19.90;;
33327;SDS011;19692;52.998;9.116;2022-09-09T02:22:38;22.23;;;19.17;;
33327;SDS011;19692;52.998;9.116;2022-09-09T02:25:08;20.80;;;17.90;;
33327;SDS011;19692;52.998;9.116;2022-09-09T02:27:39;20.77;;;18.60;;
33327;SDS011;19692;52.998;9.116;2022-09-09T02:30:06;22.03;;;19.70;;
33327;SDS011;19692;52.998;9.116;2022-09-09T02:32:34;21.83;;;18.27;;
33327;SDS011;19692;52.998;9.116;2022-09-09T02:35:03;22.43;;;19.53;;
33327;SDS011;19692;52.998;9.116;2022-09-09T02:37:38;20.53;;;18.43;;
33327;SDS011;19692;52.998;9.116;2022-09-09T02:40:07;20.50;;;17.63;;
33327;SDS011;19692;52.998;9.116;2022-09-09T02:42:42;19.87;;;17.80;;
33327;SDS011;19692;52.998;9.116;2022-09-09T02:45:11;19.13;;;17.00;;
33327;SDS011;19692;52.998;9.116;2022-09-09T02:53:52;19.03;;;16.97;;
33327;SDS011;19692;52.998;9.116;2022-09-09T02:56:37;20.73;;;17.03;;
33327;SDS011;19692;52.998;9.116;2022-09-09T02:59:07;18.27;;;16.23;;
33327;SDS011;19692;52.998;9.116;2022-09-09T03:01:33;19.57;;;16.80;;
33327;SDS011;19692;52.998;9.116;2022-09-09T03:04:00;17.23;;;15.37;;
33327;SDS011;19692;52.998;9.116;2022-09-09T03:06:30;17.73;;;15.87;;
33327;SDS011;19692;52.998;9.116;2022-09-09T03:08:55;20.20;;;16.13;;
33327;SDS011;19692;52.998;9.116;2022-09-09T03:11:25;21.07;;;15.53;;
33327;SDS011;19692;52.998;9.116;2022-09-09T03:13:52;18.43;;;15.53;;
33327;SDS011;19692;52.998;9.116;2022-09-09T03:16:21;17.63;;;15.13;;
33327;SDS011;19692;52.998;9.116;2022-09-09T03:18:49;15.77;;;14.10;;
33327;SDS011;19692;52.998;9.116;2022-09-09T03:21:15;15.80;;;14.07;;
33327;SDS011;19692;52.998;9.116;2022-09-09T03:23:41;17.70;;;15.10;;
33327;SDS011;19692;52.998;9.116;2022-09-09T03:26:06;16.43;;;14.57;;
33327;SDS011;19692;52.998;9.116;2022-09-09T03:28:33;15.23;;;13.63;;
33327;SDS011;19692;52.998;9.116;2022-09-09T03:31:00;15.23;;;13.67;;
33327;SDS011;19692;52.998;9.116;2022-09-09T03:33:30;16.27;;;13.83;;
33327;SDS011;19692;52.998;9.116;2022-09-09T03:35:56;14.70;;;13.17;;
33327;SDS011;19692;52.998;9.116;2022-09-09T03:38:23;14.27;;;12.73;;
33327;SDS011;19692;52.998;9.116;2022-09-09T03:40:50;13.37;;;11.57;;
33327;SDS011;19692;52.998;9.116;2022-09-09T03:43:20;13.97;;;11.23;;
33327;SDS011;19692;52.998;9.116;2022-09-09T03:45:50;12.93;;;10.60;;
33327;SDS011;19692;52.998;9.116;2022-09-09T03:48:16;14.90;;;10.57;;
33327;SDS011;19692;52.998;9.116;2022-09-09T03:50:46;13.97;;;10.47;;
33327;SDS011;19692;52.998;9.116;2022-09-09T03:53:14;13.30;;;10.07;;
33327;SDS011;19692;52.998;9.116;2022-09-09T03:55:45;11.47;;;10.27;;
33327;SDS011;19692;52.998;9.116;2022-09-09T03:58:20;11.10;;;8.63;;
33327;SDS011;19692;52.998;9.116;2022-09-09T04:00:53;10.13;;;9.07;;
33327;SDS011;19692;52.998;9.116;2022-09-09T04:03:30;10.40;;;9.30;;
33327;SDS011;19692;52.998;9.116;2022-09-09T04:05:57;10.27;;;8.63;;
33327;SDS011;19692;52.998;9.116;2022-09-09T04:08:25;10.67;;;8.50;;
33327;SDS011;19692;52.998;9.116;2022-09-09T04:10:51;10.23;;;8.10;;
33327;SDS011;19692;52.998;9.116;2022-09-09T04:13:18;10.70;;;8.73;;
33327;SDS011;19692;52.998;9.116;2022-09-09T04:15:50;9.70;;;8.33;;
33327;SDS011;19692;52.998;9.116;2022-09-09T04:18:18;8.77;;;7.97;;
33327;SDS011;19692;52.998;9.116;2022-09-09T04:20:47;9.97;;;7.70;;
33327;SDS011;19692;52.998;9.116;2022-09-09T04:23:15;9.47;;;7.30;;
33327;SDS011;19692;52.998;9.116;2022-09-09T04:25:43;8.70;;;7.87;;
33327;SDS011;19692;52.998;9.116;2022-09-09T04:28:17;9.73;;;7.27;;
33327;SDS011;19692;52.998;9.116;2022-09-09T04:30:44;11.20;;;7.70;;
33327;SDS011;19692;52.998;9.116;2022-09-09T04:33:11;9.57;;;7.23;;
33327;SDS011;19692;52.998;9.116;2022-09-09T04:35:38;9.63;;;8.17;;
33327;SDS011;19692;52.998;9.116;2022-09-09T04:38:05;9.67;;;7.23;;
33327;SDS011;19692;52.998;9.116;2022-09-09T04:40:34;7.80;;;6.93;;
33327;SDS011;19692;52.998;9.116;2022-09-09T04:43:00;8.07;;;6.60;;
33327;SDS011;19692;52.998;9.116;2022-09-09T04:45:30;8.33;;;7.03;;
33327;SDS011;19692;52.998;9.116;2022-09-09T04:47:56;9.03;;;7.47;;
33327;SDS011;19692;52.998;9.116;2022-09-09T04:50:22;9.30;;;8.00;;
33327;SDS011;19692;52.998;9.116;2022-09-09T04:52:48;13.17;;;11.77;;
33327;SDS011;19692;52.998;9.116;2022-09-09T04:55:14;11.83;;;9.77;;
33327;SDS011;19692;52.998;9.116;2022-09-09T04:57:40;8.97;;;7.07;;
33327;SDS011;19692;52.998;9.116;2022-09-09T05:00:06;8.00;;;7.20;;
33327;SDS011;19692;52.998;9.116;2022-09-09T05:02:32;7.40;;;6.53;;
33327;SDS011;19692;52.998;9.116;2022-09-09T05:05:02;7.83;;;6.37;;
33327;SDS011;19692;52.998;9.116;2022-09-09T05:07:28;8.43;;;5.80;;
33327;SDS011;19692;52.998;9.116;2022-09-09T05:09:56;6.63;;;5.77;;
33327;SDS011;19692;52.998;9.116;2022-09-09T05:12:22;9.30;;;6.00;;
33327;SDS011;19692;52.998;9.116;2022-09-09T05:14:50;6.23;;;5.50;;
33327;SDS011;19692;52.998;9.116;2022-09-09T05:17:19;7.73;;;5.50;;
33327;SDS011;19692;52.998;9.116;2022-09-09T05:19:44;7.20;;;5.97;;
33327;SDS011;19692;52.998;9.116;2022-09-09T05:22:10;8.97;;;5.73;;
33327;SDS011;19692;52.998;9.116;2022-09-09T05:24:37;8.07;;;6.13;;
33327;SDS011;19692;52.998;9.116;2022-09-09T05:27:03;6.03;;;4.93;;
33327;SDS011;19692;52.998;9.116;2022-09-09T05:29:31;8.93;;;6.10;;
33327;SDS011;19692;52.998;9.116;2022-09-09T05:31:58;7.43;;;5.63;;
33327;SDS011;19692;52.998;9.116;2022-09-09T05:34:24;6.67;;;5.00;;
33327;SDS011;19692;52.998;9.116;2022-09-09T05:36:50;7.80;;;5.27;;
33327;SDS011;19692;52.998;9.116;2022-09-09T05:39:17;7.37;;;5.67;;
33327;SDS011;19692;52.998;9.116;2022-09-09T05:41:43;11.77;;;10.47;;
33327;SDS011;19692;52.998;9.116;2022-09-09T05:44:09;6.73;;;4.80;;
33327;SDS011;19692;52.998;9.116;2022-09-09T05:46:34;7.30;;;5.10;;
33327;SDS011;19692;52.998;9.116;2022-09-09T05:49:01;7.63;;;4.70;;
33327;SDS011;19692;52.998;9.116;2022-09-09T05:51:27;5.63;;;5.03;;
33327;SDS011;19692;52.998;9.116;2022-09-09T05:53:57;6.40;;;5.10;;
33327;SDS011;19692;52.998;9.116;2022-09-09T05:56:24;6.20;;;4.70;;
33327;SDS011;19692;52.998;9.116;2022-09-09T05:58:52;7.20;;;4.87;;
33327;SDS011;19692;52.998;9.116;2022-09-09T06:01:24;6.83;;;4.90;;
33327;SDS011;19692;52.998;9.116;2022-09-09T06:03:52;5.63;;;4.70;;
33327;SDS011;19692;52.998;9.116;2022-09-09T06:06:19;5.53;;;4.47;;
33327;SDS011;19692;52.998;9.116;2022-09-09T06:08:51;7.90;;;4.87;;
33327;SDS011;19692;52.998;9.116;2022-09-09T06:11:20;5.10;;;4.63;;
33327;SDS011;19692;52.998;9.116;2022-09-09T06:13:48;6.87;;;4.63;;
33327;SDS011;19692;52.998;9.116;2022-09-09T06:16:16;8.87;;;5.03;;
33327;SDS011;19692;52.998;9.116;2022-09-09T06:18:44;5.00;;;4.50;;
33327;SDS011;19692;52.998;9.116;2022-09-09T06:21:17;7.30;;;5.00;;
33327;SDS011;19692;52.998;9.116;2022-09-09T06:23:46;7.40;;;4.87;;
33327;SDS011;19692;52.998;9.116;2022-09-09T06:26:16;7.13;;;4.90;;
33327;SDS011;19692;52.998;9.116;2022-09-09T06:28:45;8.00;;;4.83;;
33327;SDS011;19692;52.998;9.116;2022-09-09T06:31:13;6.47;;;4.60;;
33327;SDS011;19692;52.998;9.116;2022-09-09T06:33:42;7.30;;;5.07;;
33327;SDS011;19692;52.998;9.116;2022-09-09T06:39:05;6.70;;;4.50;;
33327;SDS011;19692;52.998;9.116;2022-09-09T06:41:32;7.00;;;4.90;;
33327;SDS011;19692;52.998;9.116;2022-09-09T06:43:58;5.30;;;4.43;;
33327;SDS011;19692;52.998;9.116;2022-09-09T06:46:28;9.40;;;5.13;;
33327;SDS011;19692;52.998;9.116;2022-09-09T06:48:57;5.33;;;4.43;;
33327;SDS011;19692;52.998;9.116;2022-09-09T06:51:25;7.63;;;5.00;;
33327;SDS011;19692;52.998;9.116;2022-09-09T06:53:57;6.10;;;4.53;;
33327;SDS011;19692;52.998;9.116;2022-09-09T06:56:26;9.13;;;4.87;;
33327;SDS011;19692;52.998;9.116;2022-09-09T06:59:01;7.30;;;4.43;;
33327;SDS011;19692;52.998;9.116;2022-09-09T07:01:30;6.40;;;4.30;;
33327;SDS011;19692;52.998;9.116;2022-09-09T07:03:59;5.53;;;4.00;;
33327;SDS011;19692;52.998;9.116;2022-09-09T07:06:26;6.30;;;4.33;;
33327;SDS011;19692;52.998;9.116;2022-09-09T07:08:56;7.20;;;4.60;;
33327;SDS011;19692;52.998;9.116;2022-09-09T07:11:30;4.57;;;4.07;;
33327;SDS011;19692;52.998;9.116;2022-09-09T07:13:59;5.87;;;4.47;;
33327;SDS011;19692;52.998;9.116;2022-09-09T07:16:26;7.03;;;3.90;;
33327;SDS011;19692;52.998;9.116;2022-09-09T07:18:52;5.23;;;3.50;;
33327;SDS011;19692;52.998;9.116;2022-09-09T07:21:26;4.57;;;3.83;;
33327;SDS011;19692;52.998;9.116;2022-09-09T07:23:53;6.83;;;4.00;;
33327;SDS011;19692;52.998;9.116;2022-09-09T07:26:20;4.80;;;3.40;;
33327;SDS011;19692;52.998;9.116;2022-09-09T07:28:52;10.20;;;4.47;;
33327;SDS011;19692;52.998;9.116;2022-09-09T07:31:23;6.73;;;3.47;;
33327;SDS011;19692;52.998;9.116;2022-09-09T07:33:55;5.53;;;3.73;;
33327;SDS011;19692;52.998;9.116;2022-09-09T07:36:22;5.00;;;3.17;;
33327;SDS011;19692;52.998;9.116;2022-09-09T07:39:00;4.20;;;2.83;;
33327;SDS011;19692;52.998;9.116;2022-09-09T07:41:43;4.00;;;3.37;;
33327;SDS011;19692;52.998;9.116;2022-09-09T07:44:15;4.03;;;3.50;;
33327;SDS011;19692;52.998;9.116;2022-09-09T07:46:46;5.30;;;3.43;;
33327;SDS011;19692;52.998;9.116;2022-09-09T07:49:12;5.37;;;3.17;;
33327;SDS011;19692;52.998;9.116;2022-09-09T07:51:40;8.73;;;3.93;;
33327;SDS011;19692;52.998;9.116;2022-09-09T07:54:10;4.40;;;3.10;;
33327;SDS011;19692;52.998;9.116;2022-09-09T07:56:39;5.47;;;3.33;;
33327;SDS011;19692;52.998;9.116;2022-09-09T07:59:05;4.97;;;3.00;;
33327;SDS011;19692;52.998;9.116;2022-09-09T08:01:32;5.10;;;3.43;;
33327;SDS011;19692;52.998;9.116;2022-09-09T08:04:11;3.37;;;2.90;;
33327;SDS011;19692;52.998;9.116;2022-09-09T08:06:41;5.13;;;3.70;;
33327;SDS011;19692;52.998;9.116;2022-09-09T08:20:16;4.57;;;3.30;;
33327;SDS011;19692;52.998;9.116;2022-09-09T08:22:41;4.17;;;3.00;;
33327;SDS011;19692;52.998;9.116;2022-09-09T08:25:07;3.43;;;2.90;;
33327;SDS011;19692;52.998;9.116;2022-09-09T08:27:35;4.50;;;2.80;;
33327;SDS011;19692;52.998;9.116;2022-09-09T08:30:02;3.90;;;3.20;;
33327;SDS011;19692;52.998;9.116;2022-09-09T08:32:29;4.63;;;3.20;;
33327;SDS011;19692;52.998;9.116;2022-09-09T08:34:55;7.40;;;3.20;;
33327;SDS011;19692;52.998;9.116;2022-09-09T08:37:20;7.00;;;3.70;;
33327;SDS011;19692;52.998;9.116;2022-09-09T08:39:46;3.20;;;2.80;;
33327;SDS011;19692;52.998;9.116;2022-09-09T08:42:17;6.77;;;3.47;;
33327;SDS011;19692;52.998;9.116;2022-09-09T08:47:47;6.97;;;3.40;;
33327;SDS011;19692;52.998;9.116;2022-09-09T08:50:29;5.33;;;4.07;;
33327;SDS011;19692;52.998;9.116;2022-09-09T08:58:19;6.93;;;3.70;;
33327;SDS011;19692;52.998;9.116;2022-09-09T09:03:43;5.63;;;4.10;;
33327;SDS011;19692;52.998;9.116;2022-09-09T09:09:27;6.20;;;3.37;;
33327;SDS011;19692;52.998;9.116;2022-09-09T09:12:29;4.33;;;3.13;;
33327;SDS011;19692;52.998;9.116;2022-09-09T09:15:02;4.50;;;3.10;;
33327;SDS011;19692;52.998;9.116;2022-09-09T09:17:44;4.37;;;3.00;;
33327;SDS011;19692;52.998;9.116;2022-09-09T09:20:13;6.23;;;3.40;;
33327;SDS011;19692;52.998;9.116;2022-09-09T09:22:48;5.07;;;3.60;;
33327;SDS011;19692;52.998;9.116;2022-09-09T09:25:23;6.10;;;3.43;;
33327;SDS011;19692;52.998;9.116;2022-09-09T09:28:00;5.37;;;3.60;;
33327;SDS011;19692;52.998;9.116;2022-09-09T09:30:27;6.70;;;4.10;;
33327;SDS011;19692;52.998;9.116;2022-09-09T09:33:17;6.40;;;3.80;;
33327;SDS011;19692;52.998;9.116;2022-09-09T09:35:51;4.97;;;3.47;;
33327;SDS011;19692;52.998;9.116;2022-09-09T09:38:22;4.33;;;3.93;;
33327;SDS011;19692;52.998;9.116;2022-09-09T09:40:59;8.47;;;4.57;;
33327;SDS011;19692;52.998;9.116;2022-09-09T09:43:33;5.93;;;4.13;;
33327;SDS011;19692;52.998;9.116;2022-09-09T09:46:00;5.20;;;4.20;;
33327;SDS011;19692;52.998;9.116;2022-09-09T09:48:29;5.70;;;4.30;;
33327;SDS011;19692;52.998;9.116;2022-09-09T09:51:11;9.43;;;4.33;;
33327;SDS011;19692;52.998;9.116;2022-09-09T09:53:41;5.97;;;3.57;;
33327;SDS011;19692;52.998;9.116;2022-09-09T09:56:13;6.17;;;3.90;;
33327;SDS011;19692;52.998;9.116;2022-09-09T10:01:23;7.00;;;3.60;;
33327;SDS011;19692;52.998;9.116;2022-09-09T10:03:52;6.53;;;3.03;;
33327;SDS011;19692;52.998;9.116;2022-09-09T10:08:58;7.50;;;3.10;;
33327;SDS011;19692;52.998;9.116;2022-09-09T10:14:16;6.37;;;2.67;;
33327;SDS011;19692;52.998;9.116;2022-09-09T10:17:03;4.67;;;2.40;;
33327;SDS011;19692;52.998;9.116;2022-09-09T10:19:36;3.73;;;2.07;;
33327;SDS011;19692;52.998;9.116;2022-09-09T10:27:38;5.17;;;1.97;;
33327;SDS011;19692;52.998;9.116;2022-09-09T10:33:51;3.97;;;2.20;;
33327;SDS011;19692;52.998;9.116;2022-09-09T10:36:46;6.30;;;2.53;;
33327;SDS011;19692;52.998;9.116;2022-09-09T10:42:06;5.10;;;2.30;;
33327;SDS011;19692;52.998;9.116;2022-09-09T10:50:46;5.50;;;2.20;;
33327;SDS011;19692;52.998;9.116;2022-09-09T10:53:25;5.97;;;2.60;;
33327;SDS011;19692;52.998;9.116;2022-09-09T10:56:11;5.57;;;2.73;;
33327;SDS011;19692;52.998;9.116;2022-09-09T10:58:47;6.33;;;2.63;;
33327;SDS011;19692;52.998;9.116;2022-09-09T11:01:39;6.23;;;3.53;;
33327;SDS011;19692;52.998;9.116;2022-09-09T11:04:19;5.83;;;2.90;;
33327;SDS011;19692;52.998;9.116;2022-09-09T11:06:55;5.40;;;3.00;;
33327;SDS011;19692;52.998;9.116;2022-09-09T11:09:23;6.07;;;3.10;;
33327;SDS011;19692;52.998;9.116;2022-09-09T11:11:55;7.67;;;3.10;;
33327;SDS011;19692;52.998;9.116;2022-09-09T11:14:32;9.97;;;3.40;;
33327;SDS011;19692;52.998;9.116;2022-09-09T11:17:11;7.47;;;3.50;;
33327;SDS011;19692;52.998;9.116;2022-09-09T11:19:45;7.30;;;3.47;;
33327;SDS011;19692;52.998;9.116;2022-09-09T11:30:49;4.23;;;3.00;;
33327;SDS011;19692;52.998;9.116;2022-09-09T11:42:39;8.70;;;4.30;;
33327;SDS011;19692;52.998;9.116;2022-09-09T11:45:10;6.67;;;3.80;;
33327;SDS011;19692;52.998;9.116;2022-09-09T11:47:52;9.67;;;5.30;;
33327;SDS011;19692;52.998;9.116;2022-09-09T11:52:49;14.47;;;6.63;;
33327;SDS011;19692;52.998;9.116;2022-09-09T11:58:02;17.77;;;7.50;;
33327;SDS011;19692;52.998;9.116;2022-09-09T12:00:35;13.97;;;7.10;;
33327;SDS011;19692;52.998;9.116;2022-09-09T12:03:03;11.00;;;7.47;;
33327;SDS011;19692;52.998;9.116;2022-09-09T12:05:38;12.30;;;7.30;;
33327;SDS011;19692;52.998;9.116;2022-09-09T12:08:08;12.60;;;7.13;;
33327;SDS011;19692;52.998;9.116;2022-09-09T12:10:38;9.20;;;3.37;;
33327;SDS011;19692;52.998;9.116;2022-09-09T12:13:24;4.33;;;2.80;;
33327;SDS011;19692;52.998;9.116;2022-09-09T12:15:55;5.73;;;3.87;;
33327;SDS011;19692;52.998;9.116;2022-09-09T12:23:52;5.27;;;4.30;;
33327;SDS011;19692;52.998;9.116;2022-09-09T12:29:04;4.50;;;2.60;;
33327;SDS011;19692;52.998;9.116;2022-09-09T12:40:18;3.80;;;2.80;;
33327;SDS011;19692;52.998;9.116;2022-09-09T12:42:52;5.30;;;3.20;;
33327;SDS011;19692;52.998;9.116;2022-09-09T12:45:24;8.67;;;3.70;;
33327;SDS011;19692;52.998;9.116;2022-09-09T12:47:56;7.67;;;5.07;;
33327;SDS011;19692;52.998;9.116;2022-09-09T12:50:30;7.57;;;4.70;;
33327;SDS011;19692;52.998;9.116;2022-09-09T12:52:59;6.90;;;5.03;;
33327;SDS011;19692;52.998;9.116;2022-09-09T12:55:30;11.73;;;5.70;;
33327;SDS011;19692;52.998;9.116;2022-09-09T12:58:00;10.23;;;6.10;;
33327;SDS011;19692;52.998;9.116;2022-09-09T13:00:31;7.20;;;6.07;;
33327;SDS011;19692;52.998;9.116;2022-09-09T13:02:59;8.03;;;5.33;;
33327;SDS011;19692;52.998;9.116;2022-09-09T13:05:41;12.07;;;5.50;;
33327;SDS011;19692;52.998;9.116;2022-09-09T13:08:11;9.90;;;5.77;;
33327;SDS011;19692;52.998;9.116;2022-09-09T13:10:49;9.30;;;5.67;;
33327;SDS011;19692;52.998;9.116;2022-09-09T13:13:35;10.43;;;6.00;;
33327;SDS011;19692;52.998;9.116;2022-09-09T13:16:03;7.13;;;4.70;;
33327;SDS011;19692;52.998;9.116;2022-09-09T13:18:36;7.20;;;4.70;;
33327;SDS011;19692;52.998;9.116;2022-09-09T13:21:07;5.83;;;4.47;;
33327;SDS011;19692;52.998;9.116;2022-09-09T13:23:33;6.63;;;4.30;;
33327;SDS011;19692;52.998;9.116;2022-09-09T13:26:03;7.77;;;3.43;;
33327;SDS011;19692;52.998;9.116;2022-09-09T13:28:32;5.67;;;3.27;;
33327;SDS011;19692;52.998;9.116;2022-09-09T13:31:00;5.20;;;2.53;;
33327;SDS011;19692;52.998;9.116;2022-09-09T13:33:31;7.13;;;2.70;;
33327;SDS011;19692;52.998;9.116;2022-09-09T13:36:04;5.60;;;2.53;;
33327;SDS011;19692;52.998;9.116;2022-09-09T13:38:35;3.83;;;2.13;;
33327;SDS011;19692;52.998;9.116;2022-09-09T13:41:34;6.80;;;2.20;;
33327;SDS011;19692;52.998;9.116;2022-09-09T13:44:17;3.67;;;2.13;;
33327;SDS011;19692;52.998;9.116;2022-09-09T13:47:04;3.30;;;2.20;;
33327;SDS011;19692;52.998;9.116;2022-09-09T13:49:39;2.80;;;2.60;;
33327;SDS011;19692;52.998;9.116;2022-09-09T13:52:08;3.70;;;2.40;;
33327;SDS011;19692;52.998;9.116;2022-09-09T13:54:37;5.67;;;2.33;;
33327;SDS011;19692;52.998;9.116;2022-09-09T13:57:03;5.63;;;2.57;;
33327;SDS011;19692;52.998;9.116;2022-09-09T13:59:29;4.03;;;2.10;;
33327;SDS011;19692;52.998;9.116;2022-09-09T14:02:04;5.10;;;2.37;;
33327;SDS011;19692;52.998;9.116;2022-09-09T14:04:30;3.43;;;2.40;;
33327;SDS011;19692;52.998;9.116;2022-09-09T14:06:56;3.97;;;2.63;;
33327;SDS011;19692;52.998;9.116;2022-09-09T14:09:22;6.87;;;2.73;;
33327;SDS011;19692;52.998;9.116;2022-09-09T14:11:47;3.37;;;2.20;;
33327;SDS011;19692;52.998;9.116;2022-09-09T14:14:13;4.73;;;2.50;;
33327;SDS011;19692;52.998;9.116;2022-09-09T14:16:39;6.50;;;2.50;;
33327;SDS011;19692;52.998;9.116;2022-09-09T14:19:05;3.77;;;3.03;;
33327;SDS011;19692;52.998;9.116;2022-09-09T14:21:33;4.87;;;2.40;;
33327;SDS011;19692;52.998;9.116;2022-09-09T14:23:59;7.80;;;2.90;;
33327;SDS011;19692;52.998;9.116;2022-09-09T14:26:25;3.60;;;2.60;;
33327;SDS011;19692;52.998;9.116;2022-09-09T14:28:51;4.50;;;2.60;;
33327;SDS011;19692;52.998;9.116;2022-09-09T14:31:17;10.93;;;9.23;;
33327;SDS011;19692;52.998;9.116;2022-09-09T14:33:43;9.07;;;6.53;;
33327;SDS011;19692;52.998;9.116;2022-09-09T14:36:10;6.60;;;4.47;;
33327;SDS011;19692;52.998;9.116;2022-09-09T14:38:36;6.03;;;3.93;;
33327;SDS011;19692;52.998;9.116;2022-09-09T14:41:11;7.03;;;4.20;;
33327;SDS011;19692;52.998;9.116;2022-09-09T14:43:41;8.13;;;4.63;;
33327;SDS011;19692;52.998;9.116;2022-09-09T14:46:08;5.93;;;4.47;;
33327;SDS011;19692;52.998;9.116;2022-09-09T14:48:39;7.83;;;4.90;;
33327;SDS011;19692;52.998;9.116;2022-09-09T14:51:09;6.10;;;5.30;;
33327;SDS011;19692;52.998;9.116;2022-09-09T14:53:38;6.17;;;5.50;;
33327;SDS011;19692;52.998;9.116;2022-09-09T14:56:05;9.27;;;6.73;;
33327;SDS011;19692;52.998;9.116;2022-09-09T14:58:34;8.87;;;6.00;;
33327;SDS011;19692;52.998;9.116;2022-09-09T15:01:04;8.90;;;6.40;;
33327;SDS011;19692;52.998;9.116;2022-09-09T15:03:34;9.43;;;6.60;;
33327;SDS011;19692;52.998;9.116;2022-09-09T15:06:08;6.37;;;5.83;;
33327;SDS011;19692;52.998;9.116;2022-09-09T15:08:37;9.70;;;5.00;;
33327;SDS011;19692;52.998;9.116;2022-09-09T15:11:06;7.40;;;5.20;;
33327;SDS011;19692;52.998;9.116;2022-09-09T15:13:33;9.63;;;5.60;;
33327;SDS011;19692;52.998;9.116;2022-09-09T15:16:07;9.07;;;4.93;;
33327;SDS011;19692;52.998;9.116;2022-09-09T15:18:37;8.27;;;3.43;;
33327;SDS011;19692;52.998;9.116;2022-09-09T15:21:08;6.77;;;3.70;;
33327;SDS011;19692;52.998;9.116;2022-09-09T15:23:40;6.23;;;3.97;;
33327;SDS011;19692;52.998;9.116;2022-09-09T15:26:07;7.50;;;3.67;;
33327;SDS011;19692;52.998;9.116;2022-09-09T15:28:33;7.53;;;3.80;;
33327;SDS011;19692;52.998;9.116;2022-09-09T15:31:06;9.10;;;4.43;;
33327;SDS011;19692;52.998;9.116;2022-09-09T15:33:35;7.90;;;4.23;;
33327;SDS011;19692;52.998;9.116;2022-09-09T15:36:17;8.23;;;4.20;;
33327;SDS011;19692;52.998;9.116;2022-09-09T15:38:45;7.17;;;3.73;;
33327;SDS011;19692;52.998;9.116;2022-09-09T15:41:12;8.17;;;4.20;;
33327;SDS011;19692;52.998;9.116;2022-09-09T15:43:39;9.13;;;5.90;;
33327;SDS011;19692;52.998;9.116;2022-09-09T15:46:33;6.13;;;5.07;;
33327;SDS011;19692;52.998;9.116;2022-09-09T15:51:50;6.90;;;3.90;;
33327;SDS011;19692;52.998;9.116;2022-09-09T15:54:23;9.00;;;6.80;;
33327;SDS011;19692;52.998;9.116;2022-09-09T15:56:51;6.07;;;4.50;;
33327;SDS011;19692;52.998;9.116;2022-09-09T15:59:20;5.83;;;4.30;;
33327;SDS011;19692;52.998;9.116;2022-09-09T16:01:50;7.17;;;3.67;;
33327;SDS011;19692;52.998;9.116;2022-09-09T16:04:17;6.90;;;4.07;;
33327;SDS011;19692;52.998;9.116;2022-09-09T16:06:55;9.90;;;4.63;;
33327;SDS011;19692;52.998;9.116;2022-09-09T16:09:25;5.10;;;3.57;;
33327;SDS011;19692;52.998;9.116;2022-09-09T16:11:51;7.57;;;4.00;;
33327;SDS011;19692;52.998;9.116;2022-09-09T16:14:18;6.23;;;4.13;;
33327;SDS011;19692;52.998;9.116;2022-09-09T16:16:44;5.60;;;4.40;;
33327;SDS011;19692;52.998;9.116;2022-09-09T16:19:12;9.47;;;4.77;;
33327;SDS011;19692;52.998;9.116;2022-09-09T16:21:42;7.70;;;4.23;;
33327;SDS011;19692;52.998;9.116;2022-09-09T16:24:11;6.97;;;4.50;;
33327;SDS011;19692;52.998;9.116;2022-09-09T16:26:41;5.47;;;3.97;;
33327;SDS011;19692;52.998;9.116;2022-09-09T16:29:10;5.03;;;3.90;;
33327;SDS011;19692;52.998;9.116;2022-09-09T16:31:37;5.17;;;3.53;;
33327;SDS011;19692;52.998;9.116;2022-09-09T16:34:04;6.80;;;3.80;;
33327;SDS011;19692;52.998;9.116;2022-09-09T16:36:31;4.50;;;3.20;;
33327;SDS011;19692;52.998;9.116;2022-09-09T16:39:00;6.00;;;3.27;;
33327;SDS011;19692;52.998;9.116;2022-09-09T16:41:34;6.53;;;2.77;;
33327;SDS011;19692;52.998;9.116;2022-09-09T16:44:01;5.03;;;3.33;;
33327;SDS011;19692;52.998;9.116;2022-09-09T16:46:30;4.83;;;3.30;;
33327;SDS011;19692;52.998;9.116;2022-09-09T16:48:59;5.43;;;2.90;;
33327;SDS011;19692;52.998;9.116;2022-09-09T16:51:28;4.57;;;3.43;;
33327;SDS011;19692;52.998;9.116;2022-09-09T16:53:57;4.43;;;3.17;;
33327;SDS011;19692;52.998;9.116;2022-09-09T16:56:26;5.70;;;3.07;;
33327;SDS011;19692;52.998;9.116;2022-09-09T16:58:58;4.53;;;3.40;;
33327;SDS011;19692;52.998;9.116;2022-09-09T17:01:26;5.43;;;3.30;;
33327;SDS011;19692;52.998;9.116;2022-09-09T17:04:02;7.50;;;3.27;;
33327;SDS011;19692;52.998;9.116;2022-09-09T17:06:32;4.37;;;3.57;;
33327;SDS011;19692;52.998;9.116;2022-09-09T17:09:07;3.73;;;3.10;;
33327;SDS011;19692;52.998;9.116;2022-09-09T17:11:35;4.70;;;3.67;;
33327;SDS011;19692;52.998;9.116;2022-09-09T17:14:05;5.43;;;3.57;;
33327;SDS011;19692;52.998;9.116;2022-09-09T17:16:34;4.43;;;3.17;;